Time;durP1;ratioP1;P1;durP2;ratioP2;P2;SDS_P1;SDS_P2;PMS_P1;PMS_P2;Temp;Humidity;BMP_temperature;BMP_pressure;BME280_temperature;BME280_humidity;BME280_pressure;Samples;Min_cycle;Max_cycle;Signal;HPM_P1;HPM_P2
2022/10/30 00:00:26;;;;;;;16.98;6.22;;;18.40;99.90;;;;;;6202532;23;20056;-94
2022/10/30 00:02:57;;;;;;;16.35;5.70;;;18.30;99.90;;;;;;6200460;23;20004;-94
2022/10/30 00:05:26;;;;;;;15.35;5.85;;;18.30;99.90;;;;;;6225868;23;20418;-94
2022/10/30 00:08:04;;;;;;;21.70;7.00;;;18.30;99.90;;;;;;6201638;23;20005;-95
2022/10/30 00:10:33;;;;;;;13.18;6.25;;;18.30;99.90;;;;;;6202260;23;20077;-96
2022/10/30 00:13:09;;;;;;;;;;;;;;;;;;;;;
2022/10/30 00:15:58;;;;;;;19.35;6.65;;;18.30;99.90;;;;;;6250482;23;20558;-94
2022/10/30 00:18:42;;;;;;;;;;;;;;;;;;;;;
2022/10/30 00:21:19;;;;;;;9.82;6.00;;;18.30;99.90;;;;;;6226345;23;20079;-95
2022/10/30 00:24:01;;;;;;;14.20;5.82;;;18.30;99.90;;;;;;6222980;23;20008;-94
2022/10/30 00:26:46;;;;;;;;;;;;;;;;;;;;;
2022/10/30 00:29:32;;;;;;;;;;;;;;;;;;;;;
2022/10/30 00:32:05;;;;;;;16.70;6.97;;;18.20;99.90;;;;;;6249937;22;20083;-95
2022/10/30 00:34:34;;;;;;;15.50;6.30;;;18.20;99.90;;;;;;6224247;23;20015;-94
2022/10/30 00:37:16;;;;;;;18.67;6.38;;;18.20;99.90;;;;;;6235722;23;20001;-94
2022/10/30 00:39:41;;;;;;;13.25;6.38;;;18.20;99.90;;;;;;6223899;23;20012;-92
2022/10/30 00:42:17;;;;;;;14.68;6.28;;;18.10;99.90;;;;;;6223307;23;20017;-93
2022/10/30 00:44:51;;;;;;;17.65;6.75;;;18.10;99.90;;;;;;6223644;23;20011;-92
2022/10/30 00:47:36;;;;;;;19.10;6.45;;;18.00;99.90;;;;;;6251204;23;20015;-93
2022/10/30 00:50:08;;;;;;;13.95;6.25;;;18.00;99.90;;;;;;6231740;23;20001;-92
2022/10/30 00:52:37;;;;;;;11.25;5.93;;;17.90;99.90;;;;;;6233182;23;20000;-93
2022/10/30 00:55:11;;;;;;;15.48;6.40;;;17.90;99.90;;;;;;6237027;23;20000;-93
2022/10/30 00:57:38;;;;;;;15.73;6.78;;;17.90;99.90;;;;;;6242614;23;20010;-93
2022/10/30 01:00:06;;;;;;;16.15;6.70;;;17.90;99.90;;;;;;6243511;23;19996;-92
2022/10/30 01:02:32;;;;;;;12.02;6.80;;;17.80;99.90;;;;;;6241903;23;20012;-94
2022/10/30 01:04:59;;;;;;;13.32;6.20;;;17.80;99.90;;;;;;6239615;23;20023;-92
2022/10/30 01:07:25;;;;;;;16.90;7.60;;;17.80;99.90;;;;;;6206742;23;20196;-93
2022/10/30 01:09:53;;;;;;;18.35;6.47;;;17.80;99.90;;;;;;6201367;23;20012;-92
2022/10/30 01:12:18;;;;;;;21.55;7.10;;;17.80;99.90;;;;;;6224969;23;19996;-91
2022/10/30 01:14:49;;;;;;;14.95;6.57;;;17.80;99.90;;;;;;6222981;23;20486;-92
2022/10/30 01:17:27;;;;;;;16.65;7.07;;;17.80;99.90;;;;;;6223065;23;20035;-92
2022/10/30 01:20:14;;;;;;;13.18;6.13;;;17.70;99.90;;;;;;6249916;23;20003;-93
2022/10/30 01:23:15;;;;;;;15.00;6.38;;;17.70;99.90;;;;;;6224025;23;20023;-92
2022/10/30 01:25:57;;;;;;;18.40;6.68;;;17.70;99.90;;;;;;6224914;23;20004;-93
2022/10/30 01:28:35;;;;;;;16.17;6.20;;;17.70;99.90;;;;;;6230531;23;20018;-93
2022/10/30 01:31:30;;;;;;;16.67;7.55;;;17.60;99.90;;;;;;6223462;22;20004;-92
2022/10/30 01:34:07;;;;;;;15.63;6.38;;;17.60;99.90;;;;;;6251097;23;20032;-93
2022/10/30 01:37:08;;;;;;;12.18;6.40;;;17.60;99.90;;;;;;6224801;23;20000;-92
2022/10/30 01:39:39;;;;;;;15.48;7.00;;;17.60;99.90;;;;;;6245758;23;20000;-93
2022/10/30 01:42:28;;;;;;;;;;;17.50;99.90;;;;;;6243218;23;20035;-90
2022/10/30 01:44:54;;;;;;;15.40;7.28;;;17.50;99.90;;;;;;6229255;23;19900;-92
2022/10/30 01:47:51;;;;;;;12.80;6.45;;;17.40;99.90;;;;;;6235161;23;20008;-92
2022/10/30 01:50:37;;;;;;;15.15;6.63;;;17.40;99.90;;;;;;6224374;23;20000;-92
2022/10/30 01:53:08;;;;;;;14.15;6.50;;;17.30;99.90;;;;;;6223972;23;20004;-92
2022/10/30 01:56:14;;;;;;;24.15;7.57;;;17.30;99.90;;;;;;6224115;23;20008;-93
2022/10/30 01:58:56;;;;;;;16.45;7.03;;;17.30;99.90;;;;;;6262047;23;20000;-93
2022/10/30 02:01:23;;;;;;;16.67;6.47;;;17.30;99.90;;;;;;6239799;23;20003;-95
2022/10/30 02:03:51;;;;;;;15.05;7.47;;;17.20;99.90;;;;;;6261175;23;20010;-91
2022/10/30 02:06:17;;;;;;;14.68;6.68;;;17.30;99.90;;;;;;6202455;23;20008;-92
2022/10/30 02:08:42;;;;;;;14.30;7.22;;;17.20;99.90;;;;;;6173366;23;20010;-92
2022/10/30 02:11:09;;;;;;;16.55;7.00;;;17.20;99.90;;;;;;6198100;23;20013;-92
2022/10/30 02:13:36;;;;;;;13.20;7.22;;;17.20;99.90;;;;;;6249574;23;20051;-92
2022/10/30 02:16:02;;;;;;;19.42;7.28;;;17.10;99.90;;;;;;6223070;23;20031;-92
2022/10/30 02:18:28;;;;;;;16.83;7.65;;;17.10;99.90;;;;;;6223013;23;20307;-92
2022/10/30 02:20:55;;;;;;;17.75;6.80;;;17.10;99.90;;;;;;6227393;23;20371;-91
2022/10/30 02:23:21;;;;;;;14.60;7.70;;;17.10;99.90;;;;;;6252576;23;20000;-93
2022/10/30 02:25:47;;;;;;;19.88;7.63;;;17.10;99.90;;;;;;6198472;23;20000;-93
2022/10/30 02:28:15;;;;;;;19.25;7.25;;;17.10;99.90;;;;;;6222917;23;20000;-92
2022/10/30 02:30:42;;;;;;;15.77;7.47;;;17.10;99.90;;;;;;6224208;23;20004;-93
2022/10/30 02:33:09;;;;;;;15.75;7.00;;;17.00;99.90;;;;;;6225086;23;20330;-93
2022/10/30 02:35:34;;;;;;;17.80;7.03;;;17.00;99.90;;;;;;6224130;23;20012;-93
2022/10/30 02:38:01;;;;;;;17.60;7.28;;;17.00;99.90;;;;;;6250600;23;20048;-93
2022/10/30 02:40:27;;;;;;;15.45;6.90;;;16.90;99.90;;;;;;6223852;23;20019;-93
2022/10/30 02:42:54;;;;;;;17.23;7.35;;;16.90;99.90;;;;;;6224221;23;20039;-94
2022/10/30 02:45:20;;;;;;;16.73;7.10;;;16.90;99.90;;;;;;6223247;23;20015;-93
2022/10/30 02:47:46;;;;;;;17.33;7.35;;;16.80;99.90;;;;;;6222211;23;20062;-94
2022/10/30 02:50:12;;;;;;;19.17;9.15;;;16.90;99.90;;;;;;6224164;23;20000;-94
2022/10/30 02:52:40;;;;;;;17.25;7.45;;;16.80;99.90;;;;;;6197625;23;20004;-94
2022/10/30 02:55:06;;;;;;;18.27;7.55;;;16.80;99.90;;;;;;6224153;23;20489;-93
2022/10/30 02:57:32;;;;;;;18.95;7.78;;;16.80;99.90;;;;;;6199355;23;20382;-91
2022/10/30 02:59:58;;;;;;;13.95;7.65;;;16.70;99.90;;;;;;6198651;23;20350;-94
2022/10/30 03:02:24;;;;;;;16.48;7.20;;;16.70;99.90;;;;;;6224798;23;20095;-93
2022/10/30 03:04:50;;;;;;;17.48;7.90;;;16.70;99.90;;;;;;6249856;23;20007;-93
2022/10/30 03:07:16;;;;;;;17.45;7.82;;;16.70;99.90;;;;;;6199598;23;20440;-93
2022/10/30 03:09:41;;;;;;;13.57;7.82;;;16.70;99.90;;;;;;6224366;23;20414;-92
2022/10/30 03:12:07;;;;;;;15.05;7.68;;;16.60;99.90;;;;;;6226216;23;19996;-94
2022/10/30 03:14:33;;;;;;;14.45;7.95;;;16.60;99.90;;;;;;6225733;23;20008;-93
2022/10/30 03:16:59;;;;;;;12.88;7.63;;;16.60;99.90;;;;;;6252313;23;20422;-92
2022/10/30 03:19:26;;;;;;;16.65;7.93;;;16.50;99.90;;;;;;6227069;23;19996;-94
2022/10/30 03:21:53;;;;;;;13.48;6.95;;;16.50;99.90;;;;;;6225919;23;20023;-93
2022/10/30 03:24:19;;;;;;;16.20;8.23;;;16.50;99.90;;;;;;6251455;23;20007;-93
2022/10/30 03:26:46;;;;;;;15.35;7.93;;;16.40;99.90;;;;;;6225729;23;20000;-93
2022/10/30 03:29:11;;;;;;;14.90;8.18;;;16.40;99.90;;;;;;6228234;23;20028;-92
2022/10/30 03:31:37;;;;;;;13.13;7.00;;;16.40;99.90;;;;;;6228370;22;20039;-92
2022/10/30 03:34:06;;;;;;;15.90;7.65;;;16.30;99.90;;;;;;6235558;22;20012;-91
2022/10/30 03:36:31;;;;;;;22.23;7.78;;;16.30;99.90;;;;;;6249605;22;19999;-90
2022/10/30 03:38:57;;;;;;;14.27;7.53;;;16.30;99.90;;;;;;6249655;23;19984;-92
2022/10/30 03:41:25;;;;;;;17.92;7.70;;;16.30;99.90;;;;;;6253974;23;19996;-88
2022/10/30 03:43:50;;;;;;;13.52;8.05;;;16.30;99.90;;;;;;6227157;23;20004;-93
2022/10/30 03:46:16;;;;;;;16.90;7.65;;;16.20;99.90;;;;;;6226501;23;20004;-94
2022/10/30 03:48:44;;;;;;;13.75;7.70;;;16.20;99.90;;;;;;6226853;23;20051;-93
2022/10/30 03:51:09;;;;;;;13.30;7.75;;;16.10;99.90;;;;;;6227571;23;20000;-94
2022/10/30 03:53:35;;;;;;;16.73;8.30;;;16.10;99.90;;;;;;6225434;23;20158;-93
2022/10/30 03:56:02;;;;;;;16.15;7.53;;;16.10;99.90;;;;;;6226462;23;20036;-93
2022/10/30 03:58:29;;;;;;;18.10;8.73;;;16.10;99.90;;;;;;6230282;23;19980;-92
2022/10/30 04:01:03;;;;;;;15.68;8.98;;;16.10;99.90;;;;;;6229008;23;20004;-94
2022/10/30 04:03:31;;;;;;;12.25;7.00;;;16.00;99.90;;;;;;6226901;23;20000;-93
2022/10/30 04:05:57;;;;;;;14.15;7.05;;;16.00;99.90;;;;;;6226147;23;20000;-94
2022/10/30 04:08:25;;;;;;;19.83;8.23;;;16.00;99.90;;;;;;6227659;23;20003;-92
2022/10/30 04:10:51;;;;;;;19.00;8.95;;;16.00;99.90;;;;;;6225981;23;20036;-93
2022/10/30 04:13:19;;;;;;;13.60;8.02;;;16.00;99.90;;;;;;6229181;23;20441;-93
2022/10/30 04:15:48;;;;;;;14.18;7.38;;;15.90;99.90;;;;;;6228167;23;20090;-92
2022/10/30 04:18:17;;;;;;;14.60;7.65;;;15.90;99.90;;;;;;6226550;23;20080;-93
2022/10/30 04:20:46;;;;;;;13.27;7.22;;;15.90;99.90;;;;;;6227356;23;20000;-92
2022/10/30 04:23:20;;;;;;;18.35;7.82;;;15.90;99.90;;;;;;6253346;23;19996;-92
2022/10/30 04:25:46;;;;;;;15.20;7.78;;;15.90;99.90;;;;;;6230890;23;20000;-92
2022/10/30 04:28:12;;;;;;;19.10;7.60;;;15.90;99.90;;;;;;6218361;23;20031;-93
2022/10/30 04:30:39;;;;;;;12.80;7.22;;;15.90;99.90;;;;;;6243399;23;20000;-93
2022/10/30 04:33:07;;;;;;;13.38;8.02;;;15.80;99.90;;;;;;6267098;22;20008;-93
2022/10/30 04:35:35;;;;;;;15.00;7.25;;;15.80;99.90;;;;;;6217723;23;20004;-91
2022/10/30 04:38:07;;;;;;;16.70;7.63;;;15.80;99.90;;;;;;6247696;23;20007;-92
2022/10/30 04:40:34;;;;;;;20.13;8.27;;;15.80;99.90;;;;;;6233588;23;20056;-91
2022/10/30 04:43:01;;;;;;;14.90;7.50;;;15.70;99.90;;;;;;6245063;23;20019;-93
2022/10/30 04:45:28;;;;;;;12.35;7.10;;;15.70;99.90;;;;;;6249456;23;20034;-92
2022/10/30 04:48:05;;;;;;;16.67;7.30;;;15.70;99.90;;;;;;6249136;22;19995;-93
2022/10/30 04:50:31;;;;;;;13.55;8.07;;;15.70;99.90;;;;;;6249236;22;20071;-92
2022/10/30 04:53:09;;;;;;;17.13;7.80;;;15.60;99.90;;;;;;6249322;22;20043;-92
2022/10/30 04:55:35;;;;;;;17.48;8.02;;;15.60;99.90;;;;;;6249114;22;20030;-90
2022/10/30 04:58:03;;;;;;;17.27;7.65;;;15.60;99.90;;;;;;6249460;22;19985;-92
2022/10/30 05:00:31;;;;;;;15.90;8.38;;;15.60;99.90;;;;;;6249266;23;19993;-94
2022/10/30 05:03:00;;;;;;;16.45;7.68;;;15.60;99.90;;;;;;6248624;22;20019;-93
2022/10/30 05:05:27;;;;;;;14.25;7.60;;;15.60;99.90;;;;;;6248862;22;20000;-93
2022/10/30 05:07:53;;;;;;;15.45;8.25;;;15.50;99.90;;;;;;6248224;23;19984;-93
2022/10/30 05:10:19;;;;;;;19.45;8.70;;;15.50;99.90;;;;;;6223878;23;19992;-93
2022/10/30 05:12:45;;;;;;;18.65;8.00;;;15.50;99.90;;;;;;6248236;23;20018;-91
2022/10/30 05:15:14;;;;;;;13.10;7.15;;;15.50;99.90;;;;;;6248344;23;20058;-92
2022/10/30 05:17:40;;;;;;;12.68;7.90;;;15.50;99.90;;;;;;6274157;22;19995;-89
2022/10/30 05:20:07;;;;;;;20.15;8.00;;;15.50;99.90;;;;;;6274756;22;20020;-91
2022/10/30 05:22:32;;;;;;;17.50;8.15;;;15.50;99.90;;;;;;6249158;22;19988;-93
2022/10/30 05:25:01;;;;;;;13.82;7.50;;;15.40;99.90;;;;;;6249159;22;20046;-92
2022/10/30 05:27:27;;;;;;;12.20;7.13;;;15.40;99.90;;;;;;6249257;23;19996;-94
2022/10/30 05:29:53;;;;;;;13.48;8.23;;;15.40;99.90;;;;;;6249184;22;19988;-90
2022/10/30 05:32:18;;;;;;;16.10;7.75;;;15.40;99.90;;;;;;6248657;22;20012;-93
2022/10/30 05:34:44;;;;;;;14.55;7.20;;;15.30;99.90;;;;;;6223499;22;19996;-91
2022/10/30 05:37:12;;;;;;;17.23;7.97;;;15.30;99.90;;;;;;6222882;22;19988;-92
2022/10/30 05:39:38;;;;;;;13.38;7.78;;;15.30;99.90;;;;;;6248480;22;19989;-93
2022/10/30 05:42:06;;;;;;;17.55;8.25;;;15.30;99.90;;;;;;6223802;22;19988;-93
2022/10/30 05:44:33;;;;;;;15.50;8.05;;;15.30;99.90;;;;;;6223310;23;20019;-93
2022/10/30 05:46:59;;;;;;;17.90;7.55;;;15.20;99.90;;;;;;6217724;23;20008;-92
2022/10/30 05:49:24;;;;;;;13.43;7.80;;;15.20;99.90;;;;;;6248897;22;20026;-93
2022/10/30 05:51:50;;;;;;;14.30;7.32;;;15.20;99.90;;;;;;6222863;23;20007;-91
2022/10/30 05:54:16;;;;;;;13.40;7.43;;;15.20;99.90;;;;;;6248114;22;20008;-93
2022/10/30 05:56:41;;;;;;;17.75;8.30;;;15.20;99.90;;;;;;6247903;23;19985;-93
2022/10/30 06:06:47;;;;;;;18.50;8.10;;;15.10;99.90;;;;;;6269314;22;20020;-93
2022/10/30 06:09:13;;;;;;;17.30;8.38;;;15.00;99.90;;;;;;6227458;23;20048;-92
2022/10/30 06:11:39;;;;;;;15.57;7.65;;;15.00;99.90;;;;;;6201417;23;20008;-93
2022/10/30 06:14:04;;;;;;;16.42;8.45;;;15.00;99.90;;;;;;6201489;23;20335;-93
2022/10/30 06:16:33;;;;;;;20.30;9.10;;;15.00;99.90;;;;;;6200544;23;20060;-94
2022/10/30 06:18:59;;;;;;;16.48;8.05;;;15.00;99.90;;;;;;6250956;23;19996;-93
2022/10/30 06:21:24;;;;;;;15.82;8.38;;;15.00;99.90;;;;;;6199361;23;20077;-91
2022/10/30 06:23:50;;;;;;;15.85;7.70;;;15.00;99.90;;;;;;6250368;23;20069;-93
2022/10/30 06:26:16;;;;;;;16.25;7.97;;;14.90;99.90;;;;;;6223907;23;20000;-92
2022/10/30 06:28:44;;;;;;;16.38;8.75;;;14.90;99.90;;;;;;6224061;23;20488;-93
2022/10/30 06:31:10;;;;;;;14.15;8.10;;;14.90;99.90;;;;;;6199858;23;20084;-93
2022/10/30 06:33:36;;;;;;;14.82;7.97;;;14.90;99.90;;;;;;6174156;23;20011;-92
2022/10/30 06:36:04;;;;;;;17.17;7.80;;;14.90;99.90;;;;;;6198504;23;20011;-93
2022/10/30 06:38:31;;;;;;;18.38;7.72;;;14.80;99.90;;;;;;6251781;23;20487;-91
2022/10/30 06:40:57;;;;;;;21.10;9.30;;;14.80;99.90;;;;;;6173420;23;20036;-93
2022/10/30 06:43:23;;;;;;;11.55;7.20;;;14.80;99.90;;;;;;6198338;23;20011;-92
2022/10/30 06:45:48;;;;;;;12.85;7.28;;;14.80;99.90;;;;;;6249798;23;20055;-93
2022/10/30 06:48:14;;;;;;;14.40;7.80;;;14.80;99.90;;;;;;6223190;23;20007;-93
2022/10/30 06:50:42;;;;;;;16.77;7.50;;;14.80;99.90;;;;;;6223457;23;20000;-93
2022/10/30 06:53:08;;;;;;;13.85;7.50;;;14.70;99.90;;;;;;6198085;23;20547;-94
2022/10/30 06:55:34;;;;;;;10.43;6.15;;;14.70;99.90;;;;;;6223919;23;20004;-93
2022/10/30 06:57:59;;;;;;;14.07;7.63;;;14.70;99.90;;;;;;6198607;23;20004;-94
2022/10/30 07:00:28;;;;;;;13.90;7.65;;;14.70;99.90;;;;;;6223817;23;20000;-91
2022/10/30 07:02:57;;;;;;;13.23;7.85;;;14.70;99.90;;;;;;6223338;23;20087;-93
2022/10/30 07:05:23;;;;;;;13.50;7.78;;;14.70;99.90;;;;;;6223238;23;20016;-95
2022/10/30 07:07:49;;;;;;;15.38;8.25;;;14.70;99.90;;;;;;6174464;23;20088;-94
2022/10/30 07:10:15;;;;;;;17.77;8.15;;;14.70;99.90;;;;;;6199279;23;20008;-93
2022/10/30 07:12:40;;;;;;;17.58;9.38;;;14.60;99.90;;;;;;6223666;23;20023;-94
2022/10/30 07:15:06;;;;;;;16.75;9.05;;;14.70;99.90;;;;;;6199392;23;20018;-92
2022/10/30 07:17:32;;;;;;;15.95;8.50;;;14.70;99.90;;;;;;6223671;23;20004;-93
2022/10/30 07:19:58;;;;;;;12.35;8.27;;;14.60;99.90;;;;;;6198499;23;20072;-93
2022/10/30 07:22:23;;;;;;;13.02;8.30;;;14.60;99.90;;;;;;6224132;23;20000;-93
2022/10/30 07:24:49;;;;;;;16.30;8.05;;;14.70;99.90;;;;;;6198415;23;20326;-92
2022/10/30 07:27:15;;;;;;;15.15;7.85;;;14.70;99.90;;;;;;6223643;23;20008;-94
2022/10/30 07:29:41;;;;;;;13.52;7.68;;;14.60;99.90;;;;;;6198345;23;20014;-94
2022/10/30 07:32:10;;;;;;;16.75;8.98;;;14.70;99.90;;;;;;6198491;23;20004;-95
2022/10/30 07:34:35;;;;;;;16.23;8.98;;;14.70;99.90;;;;;;6223914;23;20004;-94
2022/10/30 07:37:01;;;;;;;18.20;8.52;;;14.70;99.90;;;;;;6174134;23;20004;-94
2022/10/30 07:39:27;;;;;;;17.02;8.93;;;14.70;99.90;;;;;;6224505;23;20000;-94
2022/10/30 07:41:53;;;;;;;17.27;9.15;;;14.70;99.90;;;;;;6224023;23;20004;-93
2022/10/30 07:44:19;;;;;;;17.25;9.07;;;14.70;99.90;;;;;;6193185;23;20009;-92
2022/10/30 07:46:47;;;;;;;18.00;8.90;;;14.70;99.90;;;;;;6194053;23;20364;-92
2022/10/30 07:49:13;;;;;;;17.83;9.93;;;14.70;99.90;;;;;;6193558;23;20000;-95
2022/10/30 07:51:39;;;;;;;16.13;9.05;;;14.70;99.90;;;;;;6195029;23;20007;-93
2022/10/30 07:54:04;;;;;;;16.80;9.38;;;14.80;99.90;;;;;;6208365;23;20044;-94
2022/10/30 07:56:30;;;;;;;17.42;9.88;;;14.70;99.90;;;;;;6186166;23;20020;-95
2022/10/30 07:58:56;;;;;;;21.20;9.45;;;14.80;99.90;;;;;;6239841;23;20044;-95
2022/10/30 08:01:22;;;;;;;15.63;9.00;;;14.80;99.90;;;;;;6210385;23;20059;-93
2022/10/30 08:03:47;;;;;;;14.07;8.52;;;14.80;99.90;;;;;;6212428;23;20015;-91
2022/10/30 08:06:13;;;;;;;16.33;9.02;;;14.80;99.90;;;;;;6202946;23;20021;-93
2022/10/30 08:08:40;;;;;;;22.83;10.43;;;14.90;99.90;;;;;;6175998;23;20001;-94
2022/10/30 08:11:06;;;;;;;15.98;9.18;;;14.90;99.90;;;;;;6170339;23;20040;-94
2022/10/30 08:13:32;;;;;;;19.38;9.73;;;14.90;99.90;;;;;;6193846;23;20001;-94
2022/10/30 08:15:57;;;;;;;13.00;9.32;;;14.90;99.90;;;;;;6169070;23;20001;-93
2022/10/30 08:18:24;;;;;;;14.77;9.35;;;14.90;99.90;;;;;;6168956;23;20059;-93
2022/10/30 08:20:50;;;;;;;18.60;10.43;;;15.00;99.90;;;;;;6145172;23;20004;-94
2022/10/30 08:23:18;;;;;;;14.75;9.35;;;15.00;99.90;;;;;;6221142;23;20311;-93
2022/10/30 08:25:44;;;;;;;15.95;9.25;;;15.10;99.90;;;;;;6220742;23;20126;-94
2022/10/30 08:28:10;;;;;;;15.88;9.18;;;15.10;99.90;;;;;;6194026;23;20000;-94
2022/10/30 08:30:37;;;;;;;14.68;9.68;;;15.10;99.90;;;;;;6194590;23;20035;-94
2022/10/30 08:33:05;;;;;;;15.05;9.38;;;15.10;99.90;;;;;;6194510;23;20032;-93
2022/10/30 08:35:32;;;;;;;15.07;9.85;;;15.20;99.90;;;;;;6193926;23;20009;-93
2022/10/30 08:37:59;;;;;;;18.50;9.35;;;15.20;99.90;;;;;;6170476;23;20032;-94
2022/10/30 08:40:25;;;;;;;15.30;9.68;;;15.20;99.90;;;;;;6193554;23;19996;-95
2022/10/30 08:42:53;;;;;;;18.00;10.32;;;15.30;99.90;;;;;;6194130;23;20005;-94
2022/10/30 08:45:20;;;;;;;14.55;10.35;;;15.30;99.90;;;;;;6194778;23;20005;-94
2022/10/30 08:47:46;;;;;;;17.30;10.13;;;15.30;99.90;;;;;;6170756;23;20000;-94
2022/10/30 08:50:11;;;;;;;18.77;10.18;;;15.40;99.90;;;;;;6195423;23;20012;-94
2022/10/30 08:52:37;;;;;;;15.93;10.43;;;15.40;99.90;;;;;;6194944;23;20005;-93
2022/10/30 08:55:14;;;;;;;19.25;10.90;;;15.50;99.90;;;;;;6197065;23;20009;-95
2022/10/30 08:57:45;;;;;;;15.48;10.18;;;15.50;99.90;;;;;;6196234;23;20000;-94
2022/10/30 09:00:14;;;;;;;22.98;10.85;;;15.50;99.90;;;;;;6196257;23;20031;-95
2022/10/30 09:02:45;;;;;;;17.15;10.50;;;15.60;99.90;;;;;;6195488;23;20012;-95
2022/10/30 09:05:13;;;;;;;17.42;10.60;;;15.60;99.90;;;;;;6197358;23;20075;-90
2022/10/30 09:07:40;;;;;;;19.25;10.85;;;15.70;99.90;;;;;;6197473;23;20052;-95
2022/10/30 09:10:07;;;;;;;19.42;10.63;;;15.70;99.90;;;;;;6196511;23;20004;-93
2022/10/30 09:12:33;;;;;;;19.73;10.95;;;15.70;99.90;;;;;;6170182;23;20001;-95
2022/10/30 09:15:09;;;;;;;17.63;10.55;;;15.80;99.90;;;;;;6195714;23;20009;-96
2022/10/30 09:17:43;;;;;;;19.42;10.63;;;15.80;99.90;;;;;;6171278;23;20422;-96
2022/10/30 09:20:09;;;;;;;19.73;11.40;;;15.90;99.90;;;;;;6193029;23;20011;-92
2022/10/30 09:22:42;;;;;;;16.38;10.88;;;15.90;99.90;;;;;;6192248;23;20312;-93
2022/10/30 09:25:08;;;;;;;17.80;10.45;;;16.00;99.90;;;;;;6192607;23;20415;-94
2022/10/30 09:27:41;;;;;;;18.60;11.32;;;16.00;99.90;;;;;;6192828;23;20001;-94
2022/10/30 09:30:07;;;;;;;18.95;10.68;;;16.00;99.90;;;;;;6192721;23;20043;-92
2022/10/30 09:32:33;;;;;;;21.67;10.98;;;16.10;99.90;;;;;;6192447;23;20087;-92
2022/10/30 09:34:58;;;;;;;22.02;11.75;;;16.10;99.90;;;;;;6193319;23;20047;-91
2022/10/30 09:37:25;;;;;;;21.95;12.25;;;16.20;99.90;;;;;;6171625;23;20007;-94
2022/10/30 09:39:51;;;;;;;24.10;11.05;;;16.20;99.90;;;;;;6149198;23;20012;-91
